Time;durP1;ratioP1;P1;durP2;ratioP2;P2;SDS_P1;SDS_P2;PMS_P1;PMS_P2;Temp;Humidity;BMP_temperature;BMP_pressure;BME280_temperature;BME280_humidity;BME280_pressure;Samples;Min_cycle;Max_cycle;Signal;HPM_P1;HPM_P2
2022/06/09 00:00:30;;;;;;;13.85;1.90;;;;;;;46.41;11.34;100236.81;5097380;28;20039;-64
2022/06/09 00:03:05;;;;;;;9.90;1.67;;;;;;;46.58;10.94;100243.31;5087334;28;20035;-64
2022/06/09 00:05:32;;;;;;;13.15;1.52;;;;;;;45.79;11.16;100238.94;5102025;28;20529;-63
2022/06/09 00:08:03;;;;;;;11.35;1.45;;;;;;;45.85;11.60;100251.22;5086078;28;20029;-64
2022/06/09 00:10:35;;;;;;;9.75;1.63;;;;;;;46.04;10.52;100240.00;5083257;28;20118;-64
2022/06/09 00:13:04;;;;;;;9.90;1.48;;;;;;;45.06;11.50;100243.69;5085129;28;20046;-63
2022/06/09 00:15:31;;;;;;;13.77;1.48;;;;;;;45.54;11.54;100240.69;5084538;28;20032;-64
2022/06/09 00:17:58;;;;;;;7.50;1.60;;;;;;;45.03;11.70;100238.97;5085330;28;20036;-65
2022/06/09 00:20:25;;;;;;;12.65;1.88;;;;;;;45.50;11.54;100225.81;5092411;28;20533;-65
2022/06/09 00:22:51;;;;;;;16.13;2.13;;;;;;;45.73;11.39;100227.44;5092464;28;20038;-65
2022/06/09 00:25:18;;;;;;;16.63;1.85;;;;;;;45.08;11.96;100230.41;5092417;28;20026;-62
2022/06/09 00:27:45;;;;;;;11.07;1.55;;;;;;;45.06;11.39;100235.06;5092338;28;20078;-63
2022/06/09 00:30:15;;;;;;;8.07;1.48;;;;;;;45.37;11.48;100225.53;5073796;28;20027;-62
2022/06/09 00:32:42;;;;;;;8.02;1.50;;;;;;;45.42;11.11;100224.75;5079152;28;20039;-62
2022/06/09 00:35:10;;;;;;;10.15;1.80;;;;;;;45.04;11.47;100224.13;5072239;28;20391;-63
2022/06/09 00:37:37;;;;;;;16.90;2.10;;;;;;;44.67;12.00;100232.81;5072097;28;20025;-63
2022/06/09 00:40:06;;;;;;;8.00;2.17;;;;;;;44.56;11.84;100224.16;5072356;28;20029;-63
2022/06/09 00:42:36;;;;;;;17.30;2.63;;;;;;;44.67;12.04;100220.56;5076556;28;20390;-64
2022/06/09 00:45:24;;;;;;;15.35;2.03;;;;;;;43.29;13.07;100217.63;5082663;28;20029;-63
2022/06/09 00:47:53;;;;;;;14.35;1.98;;;;;;;43.53;12.96;100216.53;5094475;28;20054;-63
2022/06/09 00:50:24;;;;;;;17.15;2.10;;;;;;;43.66;13.14;100219.78;5090186;28;20421;-63
2022/06/09 00:52:58;;;;;;;10.57;1.97;;;;;;;42.62;13.98;100219.63;5095861;28;20028;-64
2022/06/09 00:55:31;;;;;;;10.27;2.25;;;;;;;41.48;14.69;100211.78;5095762;28;20578;-62
2022/06/09 00:58:05;;;;;;;19.38;2.40;;;;;;;41.92;14.80;100216.69;5090883;28;20539;-64
2022/06/09 01:00:56;;;;;;;14.25;1.95;;;;;;;41.50;15.16;100214.91;5095662;28;20085;-64
2022/06/09 01:03:26;;;;;;;20.02;2.85;;;;;;;41.31;15.34;100210.69;5092895;28;20026;-60
2022/06/09 01:06:02;;;;;;;10.80;1.70;;;;;;;41.54;15.41;100215.50;5095663;28;20731;-61
2022/06/09 01:08:32;;;;;;;13.65;1.98;;;;;;;41.85;15.34;100202.84;5093604;28;20093;-64
2022/06/09 01:10:59;;;;;;;15.48;2.25;;;;;;;41.38;15.87;100201.72;5095228;28;20028;-64
2022/06/09 01:13:26;;;;;;;32.25;2.65;;;;;;;41.80;15.38;100209.22;5095602;28;20032;-64
2022/06/09 01:16:01;;;;;;;25.98;2.50;;;;;;;41.86;15.14;100212.97;5095440;28;20051;-64
2022/06/09 01:19:05;;;;;;;11.18;1.45;;;;;;;41.63;15.26;100212.53;5093649;28;20119;-61
2022/06/09 01:21:44;;;;;;;12.65;1.52;;;;;;;41.01;15.52;100218.34;5094042;28;20036;-62
2022/06/09 01:24:43;;;;;;;9.40;1.52;;;;;;;40.82;16.03;100209.16;5093796;28;20024;-61
2022/06/09 01:27:18;;;;;;;8.80;1.90;;;;;;;40.74;16.18;100207.91;5093683;28;20058;-61
2022/06/09 01:30:21;;;;;;;12.07;1.50;;;;;;;40.81;16.04;100212.47;5092767;28;20035;-63
2022/06/09 01:33:00;;;;;;;15.43;1.80;;;;;;;40.27;16.43;100206.59;5092986;28;20119;-63
2022/06/09 01:35:44;;;;;;;12.73;1.70;;;;;;;39.97;16.88;100213.38;5092947;28;20084;-62
2022/06/09 01:38:11;;;;;;;;;;;;;;;39.88;16.98;100211.31;5094013;28;20035;-63
2022/06/09 01:40:37;;;;;;;14.93;1.90;;;;;;;39.91;17.34;100206.72;5094718;28;20351;-63
2022/06/09 01:43:05;;;;;;;10.55;1.30;;;;;;;39.90;16.81;100208.00;5094838;28;20088;-62
2022/06/09 01:46:04;;;;;;;7.43;1.40;;;;;;;39.45;17.53;100213.28;5094848;28;20027;-62
2022/06/09 01:48:32;;;;;;;13.15;1.55;;;;;;;39.11;17.94;100213.63;5093363;28;20032;-63
2022/06/09 01:51:09;;;;;;;11.18;1.40;;;;;;;39.05;17.94;100204.91;5094578;28;20024;-62
2022/06/09 01:53:47;;;;;;;16.25;1.52;;;;;;;38.94;17.96;100216.75;5094665;28;20461;-62
2022/06/09 01:56:16;;;;;;;10.05;1.50;;;;;;;38.76;18.16;100213.91;5092161;28;20039;-62
2022/06/09 01:58:51;;;;;;;7.07;1.48;;;;;;;38.67;18.13;100214.69;5089558;28;20020;-63
2022/06/09 02:01:25;;;;;;;18.05;1.63;;;;;;;38.36;18.54;100211.88;5076748;28;20445;-62
2022/06/09 02:03:56;;;;;;;15.82;2.05;;;;;;;38.25;18.43;100211.56;5094395;28;20039;-64
2022/06/09 02:06:23;;;;;;;14.40;1.60;;;;;;;38.19;18.48;100212.63;5091651;28;20035;-61
2022/06/09 02:08:50;;;;;;;12.70;1.50;;;;;;;37.95;18.59;100210.28;5094109;28;20032;-63
2022/06/09 02:11:17;;;;;;;14.32;1.70;;;;;;;37.83;18.70;100208.34;5094221;28;20088;-62
2022/06/09 02:13:48;;;;;;;21.33;2.22;;;;;;;37.70;18.90;100216.09;5076145;28;20537;-62
2022/06/09 02:16:18;;;;;;;21.98;2.13;;;;;;;37.64;18.86;100212.28;5076329;28;20035;-62
2022/06/09 02:18:49;;;;;;;16.25;2.30;;;;;;;37.46;19.17;100207.28;5091882;28;20054;-63
2022/06/09 02:21:21;;;;;;;11.27;2.00;;;;;;;37.31;19.24;100217.56;5094077;28;20028;-64
2022/06/09 02:23:48;;;;;;;18.58;2.00;;;;;;;37.13;19.49;100221.03;5092368;28;20063;-64
2022/06/09 02:26:16;;;;;;;24.02;2.95;;;;;;;37.01;19.62;100213.38;5093996;28;20035;-62
2022/06/09 02:28:44;;;;;;;25.92;2.83;;;;;;;36.82;19.63;100216.06;5091558;28;20405;-64
2022/06/09 02:31:11;;;;;;;15.85;2.67;;;;;;;36.62;20.07;100213.44;5093800;28;20107;-63
2022/06/09 02:33:38;;;;;;;19.40;1.90;;;;;;;36.47;20.12;100209.53;5093532;28;20043;-63
2022/06/09 02:36:05;;;;;;;13.45;2.22;;;;;;;36.42;19.75;100209.28;5093859;28;20031;-62
2022/06/09 02:38:32;;;;;;;16.35;2.47;;;;;;;36.35;20.03;100216.00;5093884;28;20032;-62
2022/06/09 02:40:59;;;;;;;18.65;1.90;;;;;;;36.23;20.02;100208.25;5093784;28;20020;-63
2022/06/09 02:43:26;;;;;;;20.02;2.35;;;;;;;36.14;20.22;100225.94;5093626;28;20051;-63
2022/06/09 02:45:53;;;;;;;19.77;1.98;;;;;;;35.89;19.91;100220.25;5075250;28;20052;-61
2022/06/09 02:48:21;;;;;;;22.95;3.10;;;;;;;35.79;20.78;100218.50;5093429;28;20024;-62
2022/06/09 02:50:48;;;;;;;16.55;2.45;;;;;;;35.69;20.00;100211.94;5075213;28;20027;-62
2022/06/09 02:53:15;;;;;;;17.42;2.22;;;;;;;35.46;21.09;100220.69;5075323;28;20040;-61
2022/06/09 02:55:43;;;;;;;23.25;2.50;;;;;;;35.30;20.74;100215.88;5093132;28;20027;-62
2022/06/09 02:58:11;;;;;;;18.13;2.20;;;;;;;35.24;20.70;100220.50;5093125;28;20115;-62
2022/06/09 03:00:38;;;;;;;16.52;1.67;;;;;;;35.20;20.84;100216.97;5075104;28;20028;-62
2022/06/09 03:03:11;;;;;;;16.33;2.10;;;;;;;35.14;21.07;100225.97;5093046;28;20419;-62
2022/06/09 03:05:38;;;;;;;15.10;2.10;;;;;;;35.06;20.74;100224.59;5088177;28;20035;-63
2022/06/09 03:08:08;;;;;;;11.00;2.15;;;;;;;34.93;21.26;100240.69;5093364;28;20016;-61
2022/06/09 03:10:39;;;;;;;14.90;2.15;;;;;;;34.81;21.10;100230.84;5093148;28;20032;-61
2022/06/09 03:13:06;;;;;;;22.88;2.25;;;;;;;34.78;21.31;100242.25;5075658;28;20109;-61
2022/06/09 03:15:34;;;;;;;10.05;1.80;;;;;;;34.75;21.31;100243.13;5093377;28;20054;-60
2022/06/09 03:18:00;;;;;;;22.00;2.60;;;;;;;34.75;21.17;100243.94;5093693;28;20497;-60
2022/06/09 03:20:31;;;;;;;15.88;1.85;;;;;;;34.61;21.56;100243.50;5093242;28;20047;-61
2022/06/09 03:22:58;;;;;;;21.70;2.42;;;;;;;34.54;21.63;100250.13;5094766;28;20023;-61
2022/06/09 03:25:31;;;;;;;25.33;2.25;;;;;;;34.52;21.84;100246.94;5093256;28;20039;-61
2022/06/09 03:28:00;;;;;;;15.88;2.22;;;;;;;34.34;22.09;100241.69;5059030;28;20429;-62
2022/06/09 03:30:27;;;;;;;19.27;2.50;;;;;;;34.48;21.86;100252.69;5093730;28;20113;-61
2022/06/09 03:32:54;;;;;;;16.23;1.95;;;;;;;34.31;22.14;100241.78;5094174;28;20547;-61
2022/06/09 03:35:21;;;;;;;21.15;2.10;;;;;;;34.43;22.00;100264.47;5074550;28;20393;-62
2022/06/09 03:37:48;;;;;;;23.88;2.28;;;;;;;34.47;21.68;100262.38;5090405;28;20052;-61
2022/06/09 03:40:18;;;;;;;25.42;2.30;;;;;;;34.34;21.78;100261.44;5075133;28;20109;-61
2022/06/09 03:42:44;;;;;;;18.67;2.35;;;;;;;34.44;21.78;100271.69;5094334;28;20031;-62
2022/06/09 03:45:12;;;;;;;26.17;2.58;;;;;;;34.54;21.66;100272.69;5092919;28;20051;-62
2022/06/09 03:47:39;;;;;;;35.00;2.67;;;;;;;34.34;21.84;100274.75;5093447;28;20101;-61
2022/06/09 03:50:08;;;;;;;29.73;2.35;;;;;;;34.23;22.11;100287.06;5093049;28;20016;-62
2022/06/09 03:52:34;;;;;;;29.65;2.47;;;;;;;34.08;22.37;100276.53;5093180;28;20056;-63
2022/06/09 03:55:01;;;;;;;24.85;2.30;;;;;;;34.03;22.11;100288.34;5092007;28;20081;-62
2022/06/09 03:57:28;;;;;;;20.55;2.40;;;;;;;33.77;22.42;100284.44;5093215;28;20024;-60
2022/06/09 03:59:54;;;;;;;27.15;2.80;;;;;;;33.72;22.66;100294.19;5103150;28;20022;-60
2022/06/09 04:02:23;;;;;;;27.45;3.08;;;;;;;33.67;23.05;100300.31;5097434;28;20486;-62
2022/06/09 04:04:52;;;;;;;31.00;2.70;;;;;;;33.58;23.60;100300.91;5092143;28;20028;-59
2022/06/09 04:07:20;;;;;;;25.52;2.35;;;;;;;33.56;25.44;100300.53;5092531;28;20051;-60
2022/06/09 04:09:47;;;;;;;31.83;2.97;;;;;;;33.56;26.03;100308.19;5102466;28;20126;-61
2022/06/09 04:12:14;;;;;;;22.60;2.45;;;;;;;33.51;26.70;100314.34;5092921;28;20494;-61
2022/06/09 04:14:42;;;;;;;28.83;2.40;;;;;;;33.42;27.43;100322.56;5102930;28;20047;-61
2022/06/09 04:17:13;;;;;;;36.53;2.70;;;;;;;33.26;29.06;100315.56;5085499;28;20016;-60
2022/06/09 04:19:40;;;;;;;35.78;2.97;;;;;;;33.11;30.38;100319.06;5100702;28;20375;-60
2022/06/09 04:22:07;;;;;;;34.33;2.72;;;;;;;33.09;31.87;100313.88;5099619;28;20036;-62
2022/06/09 04:24:34;;;;;;;31.30;3.13;;;;;;;32.98;33.38;100324.50;5086536;28;20036;-60
2022/06/09 04:27:01;;;;;;;34.30;3.17;;;;;;;32.88;33.41;100326.28;5086315;28;20034;-60
2022/06/09 04:29:28;;;;;;;31.15;3.05;;;;;;;32.82;33.49;100335.63;5085742;28;20027;-60
2022/06/09 04:31:55;;;;;;;31.15;2.67;;;;;;;32.69;34.75;100341.03;5085016;28;20390;-61
2022/06/09 04:34:22;;;;;;;39.03;3.35;;;;;;;32.52;34.87;100345.69;5086451;28;20035;-62
2022/06/09 04:36:48;;;;;;;32.85;2.88;;;;;;;32.43;34.90;100339.78;5085619;28;20028;-63
2022/06/09 04:39:15;;;;;;;33.45;2.88;;;;;;;32.35;35.88;100352.38;5069009;28;20028;-62
2022/06/09 04:41:42;;;;;;;25.45;3.13;;;;;;;32.23;35.79;100344.47;5086793;28;20039;-64
2022/06/09 04:44:09;;;;;;;24.08;2.53;;;;;;;32.17;36.28;100359.00;5074439;28;20032;-62
2022/06/09 04:46:35;;;;;;;16.77;2.50;;;;;;;32.05;36.52;100361.56;5108779;28;20106;-62
2022/06/09 04:49:03;;;;;;;30.65;2.92;;;;;;;32.06;36.52;100374.41;5093747;28;20415;-64
2022/06/09 04:51:31;;;;;;;24.88;2.50;;;;;;;31.80;36.79;100359.84;5075778;28;20165;-62
2022/06/09 04:53:58;;;;;;;22.98;2.60;;;;;;;31.75;36.76;100367.91;5103519;28;20035;-61
2022/06/09 04:56:25;;;;;;;13.18;2.15;;;;;;;31.67;36.51;100369.19;5096801;28;20378;-64
2022/06/09 04:58:52;;;;;;;15.55;2.20;;;;;;;31.62;36.33;100389.31;5100501;28;20028;-62
2022/06/09 05:01:31;;;;;;;11.77;1.83;;;;;;;31.48;36.07;100382.63;5096562;28;20393;-61
2022/06/09 05:03:59;;;;;;;22.33;2.20;;;;;;;31.39;36.36;100385.09;5089875;28;20035;-62
2022/06/09 05:06:27;;;;;;;16.88;2.40;;;;;;;31.44;36.67;100389.50;5107403;28;20034;-61
2022/06/09 05:08:55;;;;;;;22.85;2.30;;;;;;;31.49;36.62;100401.06;5094893;28;20044;-61
2022/06/09 05:11:24;;;;;;;14.70;2.15;;;;;;;31.39;36.76;100399.13;5097780;28;20039;-63
2022/06/09 05:13:51;;;;;;;16.88;2.55;;;;;;;31.37;36.68;100389.53;5101191;28;20035;-61
2022/06/09 05:16:18;;;;;;;15.48;2.15;;;;;;;31.22;37.15;100402.88;5090911;28;20028;-60
2022/06/09 05:18:45;;;;;;;17.50;2.33;;;;;;;31.18;37.53;100400.13;5107842;28;20488;-60
2022/06/09 05:21:11;;;;;;;16.58;2.13;;;;;;;31.08;37.84;100406.59;5096150;28;20466;-60
2022/06/09 05:23:39;;;;;;;26.40;2.72;;;;;;;30.94;37.66;100412.31;5102722;28;20490;-61
2022/06/09 05:26:07;;;;;;;16.17;2.72;;;;;;;30.88;37.88;100414.75;5104404;28;20020;-60
2022/06/09 05:28:34;;;;;;;18.13;2.83;;;;;;;30.89;38.07;100415.56;5096222;28;20032;-62
2022/06/09 05:31:01;;;;;;;10.63;2.60;;;;;;;30.83;38.02;100428.41;5080598;28;20368;-61
2022/06/09 05:33:28;;;;;;;14.25;2.80;;;;;;;30.75;37.96;100424.84;5108728;28;20036;-61
2022/06/09 05:35:56;;;;;;;8.48;2.00;;;;;;;30.74;37.38;100419.66;5106582;28;20042;-61
2022/06/09 05:46:43;;;;;;;11.75;2.50;;;;;;;30.45;35.82;100418.97;5096320;28;20116;-61
2022/06/09 05:49:10;;;;;;;12.90;2.35;;;;;;;30.44;35.15;100417.38;5090814;28;20019;-59
2022/06/09 05:51:37;;;;;;;95.75;7.00;;;;;;;30.35;36.95;100421.41;5106927;28;20509;-59
2022/06/09 05:54:04;;;;;;;19.35;2.45;;;;;;;30.35;35.25;100426.22;5089558;28;20031;-59
2022/06/09 05:56:31;;;;;;;22.88;2.30;;;;;;;30.30;36.82;100419.00;5096212;28;20032;-59
2022/06/09 05:58:59;;;;;;;12.25;2.33;;;;;;;30.24;36.49;100431.06;5100833;28;20019;-60
2022/06/09 06:01:27;;;;;;;11.98;2.30;;;;;;;30.23;36.07;100423.88;5108386;28;20165;-61
2022/06/09 06:03:53;;;;;;;7.45;1.80;;;;;;;30.14;36.74;100423.47;5090042;28;20099;-62
2022/06/09 06:06:35;;;;;;;11.93;2.20;;;;;;;29.98;37.76;100421.09;5094989;28;20032;-62
2022/06/09 06:09:10;;;;;;;8.77;2.10;;;;;;;29.93;38.12;100429.91;5089188;28;20065;-61
2022/06/09 06:11:38;;;;;;;15.10;2.47;;;;;;;29.92;39.29;100433.91;5091423;28;20036;-61
2022/06/09 06:14:06;;;;;;;18.65;2.70;;;;;;;29.82;39.37;100426.34;5091847;28;20054;-61
2022/06/09 06:16:32;;;;;;;10.57;2.22;;;;;;;29.70;39.81;100422.75;5095095;28;20489;-62
2022/06/09 06:18:59;;;;;;;41.13;3.22;;;;;;;29.69;40.38;100421.16;5095622;28;20145;-62
2022/06/09 06:21:26;;;;;;;9.60;1.70;;;;;;;29.69;41.14;100435.16;5091985;28;20056;-62
2022/06/09 06:23:55;;;;;;;8.75;2.03;;;;;;;29.61;41.98;100439.16;5074979;28;20489;-63
2022/06/09 06:26:22;;;;;;;19.73;2.40;;;;;;;29.56;42.88;100436.78;5092796;28;20058;-61
2022/06/09 06:28:50;;;;;;;9.35;2.00;;;;;;;29.50;43.20;100434.78;5093245;28;20043;-60
2022/06/09 06:31:18;;;;;;;14.00;2.30;;;;;;;29.46;42.79;100434.78;5090007;28;20032;-58
2022/06/09 06:33:44;;;;;;;16.80;2.30;;;;;;;29.48;42.28;100424.78;5086089;28;20032;-61
2022/06/09 06:36:11;;;;;;;11.25;2.20;;;;;;;29.42;42.12;100434.72;5090838;28;20028;-61
2022/06/09 06:38:39;;;;;;;12.52;2.33;;;;;;;29.38;42.20;100433.94;5086228;28;20119;-59
2022/06/09 06:41:08;;;;;;;14.70;2.53;;;;;;;29.41;40.44;100427.53;5084352;28;20024;-60
2022/06/09 06:43:36;;;;;;;8.77;2.05;;;;;;;29.26;40.12;100427.94;5070388;28;20456;-61
2022/06/09 06:46:03;;;;;;;8.50;1.80;;;;;;;29.36;38.61;100433.53;5087682;28;20122;-64
2022/06/09 06:48:32;;;;;;;15.45;2.08;;;;;;;29.29;38.29;100435.56;5094099;28;20115;-64
2022/06/09 06:50:59;;;;;;;7.60;1.67;;;;;;;29.23;37.47;100446.31;5097598;28;20031;-65
2022/06/09 06:53:27;;;;;;;14.90;2.22;;;;;;;29.31;37.61;100447.16;5089787;28;20127;-64
2022/06/09 06:55:54;;;;;;;9.70;2.20;;;;;;;29.33;38.98;100445.53;5070259;28;20090;-63
2022/06/09 06:58:20;;;;;;;10.45;2.00;;;;;;;29.38;39.70;100449.94;5092065;28;20020;-61
2022/06/09 07:00:47;;;;;;;10.40;2.15;;;;;;;29.30;41.78;100451.16;5093873;28;20040;-65
2022/06/09 07:03:15;;;;;;;9.45;1.85;;;;;;;29.38;41.76;100452.75;5090615;28;20474;-62
2022/06/09 07:05:42;;;;;;;13.25;1.90;;;;;;;29.25;42.34;100440.31;5103146;28;20036;-62
2022/06/09 07:08:09;;;;;;;10.20;1.88;;;;;;;29.26;42.90;100450.31;5102418;28;20023;-65
2022/06/09 07:10:36;;;;;;;10.95;2.03;;;;;;;29.18;43.19;100446.72;5079053;28;20098;-64
2022/06/09 07:13:03;;;;;;;15.50;2.53;;;;;;;29.05;43.99;100443.50;5096346;28;20083;-65
2022/06/09 07:15:30;;;;;;;13.30;2.33;;;;;;;29.06;44.47;100447.91;5092587;28;20039;-63
2022/06/09 07:17:57;;;;;;;9.65;2.20;;;;;;;29.13;44.54;100447.94;5086083;28;20069;-63
2022/06/09 07:20:25;;;;;;;6.97;1.70;;;;;;;29.06;45.26;100447.91;5098011;28;20035;-64
2022/06/09 07:22:52;;;;;;;6.97;1.75;;;;;;;29.03;45.02;100457.09;5109958;28;20019;-65
2022/06/09 07:25:23;;;;;;;10.85;1.73;;;;;;;29.03;44.66;100448.69;5080802;28;20608;-62
2022/06/09 07:27:51;;;;;;;7.03;1.92;;;;;;;28.98;43.59;100457.50;5102545;28;20089;-62
2022/06/09 07:30:19;;;;;;;9.65;1.80;;;;;;;28.93;42.40;100448.69;5107878;28;20084;-61
2022/06/09 07:32:46;;;;;;;5.65;1.60;;;;;;;29.01;41.76;100453.09;5096997;28;20051;-62
2022/06/09 07:35:17;;;;;;;8.68;1.83;;;;;;;28.92;42.27;100458.28;5104270;28;20039;-63
2022/06/09 07:37:44;;;;;;;10.00;1.80;;;;;;;28.94;42.53;100462.28;5103971;28;20047;-61
2022/06/09 07:40:12;;;;;;;6.05;1.73;;;;;;;28.84;44.04;100455.41;5106704;28;20040;-61
2022/06/09 07:42:39;;;;;;;11.20;1.77;;;;;;;28.73;45.00;100473.38;5096510;28;20028;-62
2022/06/09 07:45:09;;;;;;;6.05;1.63;;;;;;;28.66;45.98;100464.94;5099446;28;20501;-61
2022/06/09 07:47:37;;;;;;;6.63;1.63;;;;;;;28.55;47.21;100476.91;5105220;28;20043;-62
2022/06/09 07:50:07;;;;;;;22.23;2.60;;;;;;;28.57;47.40;100466.13;5105632;28;20031;-61
2022/06/09 07:52:33;;;;;;;12.75;2.28;;;;;;;28.41;48.01;100462.06;5096743;28;20072;-62
2022/06/09 07:55:00;;;;;;;11.90;2.30;;;;;;;28.39;48.28;100470.84;5095505;28;20382;-60
2022/06/09 07:57:27;;;;;;;11.50;2.30;;;;;;;28.36;48.54;100474.41;5106047;28;20126;-61
2022/06/09 07:59:54;;;;;;;13.02;2.45;;;;;;;28.35;49.42;100470.00;5103890;28;20020;-62
2022/06/09 08:02:22;;;;;;;8.88;3.25;;;;;;;28.32;50.47;100462.41;5098244;28;20390;-62
2022/06/09 08:04:50;;;;;;;17.50;4.22;;;;;;;28.33;51.73;100472.38;5084162;28;20036;-61
2022/06/09 08:07:16;;;;;;;10.10;3.28;;;;;;;28.19;52.01;100472.31;5072432;28;20036;-63
2022/06/09 08:09:43;;;;;;;10.45;2.90;;;;;;;28.21;51.84;100469.91;5102248;28;20032;-60
2022/06/09 08:12:10;;;;;;;10.77;2.70;;;;;;;28.15;52.70;100474.25;5100170;28;20069;-62
2022/06/09 08:14:37;;;;;;;7.45;2.22;;;;;;;28.10;54.25;100471.84;5078859;28;20121;-61
2022/06/09 08:17:05;;;;;;;14.00;2.72;;;;;;;28.10;55.51;100481.03;5090836;28;20019;-63
2022/06/09 08:19:32;;;;;;;10.50;2.78;;;;;;;27.98;56.29;100470.97;5082576;28;20519;-62
2022/06/09 08:21:59;;;;;;;12.77;3.10;;;;;;;27.84;57.92;100470.88;5101248;28;20026;-60
2022/06/09 08:24:26;;;;;;;12.45;3.20;;;;;;;27.74;58.74;100463.22;5108280;28;20028;-62
2022/06/09 08:26:53;;;;;;;8.48;3.10;;;;;;;27.63;59.62;100462.31;5095989;28;20055;-61
2022/06/09 08:29:20;;;;;;;9.15;3.42;;;;;;;27.63;59.62;100462.31;5106985;28;20032;-61
2022/06/09 08:31:46;;;;;;;10.98;3.13;;;;;;;27.60;59.35;100460.28;5102389;28;20036;-62
2022/06/09 08:34:13;;;;;;;13.20;3.00;;;;;;;27.57;59.39;100469.44;5098864;28;20107;-63
2022/06/09 08:36:40;;;;;;;11.57;3.58;;;;;;;27.48;59.85;100460.59;5109343;28;20470;-62
2022/06/09 08:39:06;;;;;;;12.05;3.63;;;;;;;27.44;61.68;100476.50;5096969;28;20032;-62
2022/06/09 08:41:37;;;;;;;17.25;4.13;;;;;;;27.34;62.26;100483.59;5086718;28;20054;-63
2022/06/09 08:44:38;;;;;;;28.33;5.72;;;;;;;27.33;62.64;100480.00;5098949;28;20090;-62
2022/06/09 08:47:42;;;;;;;9.45;4.07;;;;;;;27.32;63.37;100486.78;5080522;28;20397;-62
2022/06/09 08:50:26;;;;;;;13.98;4.50;;;;;;;27.28;63.49;100491.50;5081748;28;20089;-61
2022/06/09 08:53:08;;;;;;;14.63;7.00;;;;;;;27.25;64.20;100489.47;5109197;28;20478;-62
2022/06/09 08:55:52;;;;;;;18.88;8.77;;;;;;;27.17;64.85;100501.75;5101068;28;20035;-63
2022/06/09 08:58:40;;;;;;;20.33;8.20;;;;;;;27.07;65.11;100519.16;5098225;28;20067;-62
2022/06/09 09:01:10;;;;;;;15.52;5.82;;;;;;;27.08;64.75;100515.19;5081225;28;20107;-62
2022/06/09 09:03:46;;;;;;;15.90;5.70;;;;;;;27.05;65.79;100513.19;5086002;28;20028;-61
2022/06/09 09:06:28;;;;;;;16.17;7.20;;;;;;;27.03;65.63;100516.34;5101853;28;20057;-62
2022/06/09 09:09:08;;;;;;;16.02;6.03;;;;;;;26.96;66.36;100515.44;5099497;28;20105;-62
2022/06/09 09:11:56;;;;;;;14.57;5.25;;;;;;;26.90;66.76;100503.00;5108330;28;20048;-63
2022/06/09 09:14:43;;;;;;;17.00;5.78;;;;;;;26.81;67.36;100500.53;5103737;28;20059;-62
2022/06/09 09:17:21;;;;;;;15.82;4.60;;;;;;;26.71;67.22;100509.56;5084383;28;20035;-62
2022/06/09 09:20:10;;;;;;;12.35;3.60;;;;;;;26.70;66.85;100503.19;5087802;28;20044;-63
2022/06/09 09:22:54;;;;;;;10.38;3.40;;;;;;;26.71;65.78;100501.19;5044824;28;20084;-63
2022/06/09 09:25:39;;;;;;;14.95;3.90;;;;;;;26.65;66.60;100509.09;5109854;28;20024;-62
2022/06/09 09:28:13;;;;;;;11.40;3.97;;;;;;;26.65;66.35;100506.31;5101145;28;20036;-61
2022/06/09 09:31:00;;;;;;;10.77;3.60;;;;;;;26.59;65.83;100499.47;5099187;28;20118;-63
2022/06/09 09:33:29;;;;;;;13.02;3.63;;;;;;;26.57;66.19;100496.25;5090689;28;20047;-61
2022/06/09 09:36:02;;;;;;;13.13;3.40;;;;;;;26.64;65.41;100501.91;5106784;28;20024;-61
2022/06/09 09:38:44;;;;;;;10.27;3.55;;;;;;;26.54;66.06;100510.13;5099868;28;20032;-61
2022/06/09 09:41:31;;;;;;;12.95;4.20;;;;;;;26.43;66.28;100508.03;5085710;28;20031;-62
2022/06/09 09:43:59;;;;;;;12.13;4.15;;;;;;;26.42;65.22;100511.19;5085364;28;20108;-61
2022/06/09 09:46:33;;;;;;;11.68;4.97;;;;;;;26.48;65.53;100515.25;5111286;28;20486;-63
2022/06/09 09:49:15;;;;;;;10.80;5.40;;;;;;;26.45;64.66;100514.00;5082212;28;20046;-61
2022/06/09 09:51:43;;;;;;;19.90;6.28;;;;;;;26.40;64.55;100514.34;5106432;28;20040;-62
2022/06/09 09:54:19;;;;;;;12.55;6.10;;;;;;;26.42;65.07;100509.19;5108834;28;20031;-62
2022/06/09 09:56:46;;;;;;;13.15;5.43;;;;;;;26.40;64.60;100522.72;5098796;28;20432;-62
2022/06/09 09:59:26;;;;;;;15.05;5.60;;;;;;;26.40;64.87;100527.47;5110444;28;20024;-62
2022/06/09 10:10:27;;;;;;;7.72;2.67;;;;;;;26.24;67.20;100526.81;5110206;28;20051;-63
2022/06/09 10:12:56;;;;;;;12.45;3.00;;;;;;;26.18;67.88;100535.47;5098541;28;20028;-62
2022/06/09 10:15:26;;;;;;;14.05;2.85;;;;;;;26.13;68.31;100527.44;5106154;28;20156;-62
2022/06/09 10:17:59;;;;;;;8.73;2.53;;;;;;;26.15;68.52;100519.50;5103215;28;20119;-62
2022/06/09 10:20:43;;;;;;;9.88;5.35;;;;;;;26.08;68.55;100535.31;5110617;28;20489;-63
2022/06/09 10:23:10;;;;;;;10.68;4.95;;;;;;;25.99;68.70;100540.34;5084788;28;20034;-62
2022/06/09 10:25:49;;;;;;;10.13;4.03;;;;;;;26.02;68.02;100537.59;5106596;28;20032;-62
2022/06/09 10:28:56;;;;;;;10.57;4.10;;;;;;;26.02;67.22;100545.97;5109051;28;20172;-62
2022/06/09 10:31:44;;;;;;;9.90;4.32;;;;;;;25.97;67.12;100540.72;5069773;28;20032;-63
2022/06/09 10:34:35;;;;;;;10.52;4.30;;;;;;;25.95;67.81;100554.22;5099932;28;20482;-62
2022/06/09 10:37:13;;;;;;;11.30;4.60;;;;;;;25.90;67.97;100557.31;5073301;28;20452;-61
2022/06/09 10:39:52;;;;;;;10.68;3.90;;;;;;;25.86;68.34;100551.69;5105849;28;20032;-62
2022/06/09 10:42:39;;;;;;;10.48;5.95;;;;;;;25.83;68.45;100562.75;5100227;28;20183;-61
2022/06/09 10:45:17;;;;;;;11.82;4.72;;;;;;;25.83;68.83;100546.84;5087505;28;20504;-62
2022/06/09 10:57:14;;;;;;;12.20;5.25;;;;;;;25.66;69.65;100550.09;5081681;28;20116;-62
2022/06/09 10:59:51;;;;;;;12.00;5.32;;;;;;;25.63;69.37;100556.41;5105349;28;20036;-61
2022/06/09 11:02:21;;;;;;;11.27;4.80;;;;;;;25.63;69.70;100553.63;5108606;28;20044;-63
2022/06/09 11:04:51;;;;;;;11.10;5.50;;;;;;;25.52;70.33;100559.03;5097244;28;20493;-62
2022/06/09 11:07:51;;;;;;;12.77;5.38;;;;;;;25.56;70.18;100559.88;5108669;28;20078;-63
2022/06/09 11:10:21;;;;;;;9.82;3.72;;;;;;;25.54;69.91;100564.22;5108107;28;20090;-62
2022/06/09 11:12:56;;;;;;;12.65;4.53;;;;;;;25.49;70.02;100568.09;5097140;28;20036;-62
2022/06/09 11:15:46;;;;;;;14.15;5.20;;;;;;;25.49;70.42;100567.28;5104736;28;20553;-61
2022/06/09 11:18:28;;;;;;;25.67;9.43;;;;;;;25.43;68.97;100571.56;5100563;28;20036;-63
2022/06/09 11:21:08;;;;;;;15.63;6.30;;;;;;;25.38;68.79;100580.22;5110531;28;20490;-62
2022/06/09 11:23:56;;;;;;;8.85;4.35;;;;;;;25.37;69.25;100584.97;5102422;28;20066;-62
2022/06/09 11:26:25;;;;;;;12.55;3.42;;;;;;;25.34;69.77;100582.94;5098478;28;20040;-63
2022/06/09 11:29:26;;;;;;;13.00;3.00;;;;;;;25.22;70.14;100571.94;5110305;28;20024;-62
2022/06/09 11:32:06;;;;;;;11.27;3.53;;;;;;;25.17;69.91;100575.03;5104253;28;20031;-62
2022/06/09 11:34:47;;;;;;;9.07;2.78;;;;;;;25.14;70.68;100573.00;5096845;28;20039;-63
2022/06/09 11:37:16;;;;;;;9.88;3.00;;;;;;;25.12;70.68;100570.56;5084150;28;20535;-62
2022/06/09 11:39:55;;;;;;;8.65;2.80;;;;;;;25.11;71.10;100568.16;5103928;28;20510;-62
2022/06/09 11:42:32;;;;;;;20.63;3.60;;;;;;;25.07;70.66;100570.88;5108614;28;20028;-63
2022/06/09 11:45:11;;;;;;;11.52;3.08;;;;;;;25.04;70.62;100577.16;5093256;28;20500;-61
2022/06/09 11:47:38;;;;;;;139.57;7.47;;;;;;;25.00;71.47;100577.09;5102164;28;20035;-62
2022/06/09 11:50:08;;;;;;;64.05;5.88;;;;;;;24.98;71.17;100573.03;5100525;28;20032;-62
2022/06/09 11:52:46;;;;;;;12.27;4.05;;;;;;;25.02;71.13;100581.47;5109839;28;20118;-64
2022/06/09 11:55:57;;;;;;;13.25;4.50;;;;;;;24.95;71.34;100594.00;5098661;28;20039;-62
2022/06/09 11:58:34;;;;;;;12.00;4.68;;;;;;;24.90;70.49;100594.31;5099148;28;20036;-64
2022/06/09 12:01:33;;;;;;;13.38;4.93;;;;;;;24.88;70.24;100585.53;5079913;28;20049;-63
2022/06/09 12:04:35;;;;;;;13.88;4.20;;;;;;;24.88;69.84;100602.22;5092576;28;20070;-63
2022/06/09 12:07:25;;;;;;;15.98;4.85;;;;;;;24.83;69.64;100608.06;5079059;28;20081;-64